Richfield, Kansas
Current Conditions -  °F | °C
As of 4:53 AM on Monday 20 Oct 2014 (Local Time) from KGUY Reporting Station
Clear Clear  
Wind Chill: 52°   Ceiling: Unl
Heat Index: 52°   Visibility: 10mi
Dew Point: 46°   Wind: 10mph
Humidity: 80%   Direction: 270°W
Pressure: 30.07"   Gusts: NA
Location:  37.27°N, 101.78°W
Report Text: KGUY 200953Z AUTO 27009KT 10SM CLR 11/08 A3007 RMK AO2 SLP150 T01110078
Loading
Personal Weather Stations






























Interactive Weather Map
Tropical Storm Tracking
New forecast layout! Learn more

10-Day Weather Forecast

Advertisements
Track Severe Weather on mobile